createdAt,value
2023-03-27T00:02:23.758Z,93479.31
2023-03-27T00:04:50.715Z,93448.84
2023-03-27T00:07:17.555Z,93481.75
2023-03-27T00:09:46.512Z,93485.31
2023-03-27T00:12:13.406Z,93472.63
2023-03-27T00:14:40.367Z,93475.88
2023-03-27T00:17:07.198Z,93484.34
2023-03-27T00:19:34.156Z,93467.88
2023-03-27T00:22:01.375Z,93491.50
2023-03-27T00:24:28.529Z,93504.41
2023-03-27T00:26:55.397Z,93489.56
2023-03-27T00:29:22.274Z,93487.44
2023-03-27T00:31:49.171Z,93499.84
2023-03-27T00:34:16.188Z,93494.44
2023-03-27T00:36:43.918Z,93511.22
2023-03-27T00:39:11.482Z,93523.81
2023-03-27T00:41:38.374Z,93505.38
2023-03-27T00:44:24.110Z,93502.63
2023-03-27T00:46:52.550Z,93511.75
2023-03-27T00:49:19.462Z,93530.97
2023-03-27T00:51:48.270Z,93516.31
2023-03-27T00:54:22.158Z,93529.63
2023-03-27T00:56:50.095Z,93518.09
2023-03-27T00:59:20.289Z,93515.31
2023-03-27T01:01:48.018Z,93521.34
2023-03-27T01:04:14.977Z,93518.25
2023-03-27T01:06:42.511Z,93506.53
2023-03-27T01:09:09.738Z,93508.94
2023-03-27T01:12:02.834Z,93519.22
2023-03-27T01:14:44.691Z,93531.97
2023-03-27T01:17:32.653Z,93537.66
2023-03-27T01:20:26.222Z,93535.84
2023-03-27T01:23:16.952Z,93544.00
2023-03-27T01:26:37.738Z,93542.38
2023-03-27T01:29:22.934Z,93539.78
2023-03-27T01:32:53.315Z,93545.78
2023-03-27T01:35:53.035Z,93536.66
2023-03-27T01:38:57.002Z,93554.44
2023-03-27T01:41:41.338Z,93559.00
2023-03-27T01:44:22.548Z,93559.00
2023-03-27T01:47:00.892Z,93549.03
2023-03-27T01:49:43.631Z,93562.09
2023-03-27T01:52:19.198Z,93559.47
2023-03-27T01:54:55.976Z,93578.56
2023-03-27T01:57:28.833Z,93578.41
2023-03-27T02:00:18.671Z,93583.56
2023-03-27T02:03:23.138Z,93592.53
2023-03-27T02:06:01.768Z,93586.69
2023-03-27T02:08:41.497Z,93600.06
2023-03-27T02:11:08.683Z,93587.31
2023-03-27T02:13:42.443Z,93617.63
2023-03-27T02:16:17.078Z,93614.34
2023-03-27T02:19:18.765Z,93613.34
2023-03-27T02:21:48.399Z,93628.66
2023-03-27T02:24:18.990Z,93622.72
2023-03-27T02:26:49.775Z,93617.09
2023-03-27T02:29:47.161Z,93637.19
2023-03-27T02:32:34.893Z,93637.97
2023-03-27T02:35:13.026Z,93652.66
2023-03-27T02:38:13.752Z,93644.47
2023-03-27T02:41:11.107Z,93655.13
2023-03-27T02:44:13.324Z,93646.78
2023-03-27T02:46:49.410Z,93656.94
2023-03-27T02:49:28.959Z,93672.47
2023-03-27T02:52:02.708Z,93685.81
2023-03-27T02:54:36.858Z,93703.38
2023-03-27T02:57:11.928Z,93696.69
2023-03-27T02:59:45.661Z,93690.84
2023-03-27T03:05:25.246Z,93717.06
2023-03-27T03:08:14.799Z,93696.44
2023-03-27T03:10:46.196Z,93719.16
2023-03-27T03:13:13.158Z,93736.78
2023-03-27T03:16:20.988Z,93707.59
2023-03-27T03:18:47.921Z,93729.28
2023-03-27T03:21:15.518Z,93757.41
2023-03-27T03:23:42.521Z,93754.72
2023-03-27T03:26:25.218Z,93782.06
2023-03-27T03:29:00.627Z,93772.84
2023-03-27T03:31:44.509Z,93772.50
2023-03-27T03:34:18.774Z,93794.50
2023-03-27T03:36:50.124Z,93760.13
2023-03-27T03:39:18.506Z,93805.16
2023-03-27T03:41:45.496Z,93803.06
2023-03-27T03:44:12.388Z,93803.31
2023-03-27T03:46:39.675Z,93828.06
2023-03-27T03:49:07.054Z,93832.25
2023-03-27T03:51:35.934Z,93842.94
2023-03-27T03:54:05.608Z,93837.16
2023-03-27T03:56:34.705Z,93854.09
2023-03-27T03:59:01.725Z,93863.72
2023-03-27T04:01:29.025Z,93840.41
2023-03-27T04:03:56.565Z,93860.53
2023-03-27T04:06:25.819Z,93890.66
2023-03-27T04:08:53.291Z,93883.03
2023-03-27T04:11:21.315Z,93912.69
2023-03-27T04:13:48.317Z,93910.91
2023-03-27T04:16:15.793Z,93908.78
2023-03-27T04:18:42.961Z,93921.34
2023-03-27T04:21:18.090Z,93922.16
2023-03-27T04:23:48.446Z,93925.16
2023-03-27T04:26:16.351Z,93918.59
2023-03-27T04:28:43.309Z,93917.47
2023-03-27T04:31:11.063Z,93908.09
2023-03-27T04:33:40.154Z,93935.97
2023-03-27T04:36:08.756Z,93939.94
2023-03-27T04:38:39.466Z,93940.19
2023-03-27T04:41:07.572Z,93950.31
2023-03-27T04:43:37.034Z,93946.91
2023-03-27T04:46:08.142Z,93945.13
2023-03-27T04:48:39.357Z,93942.41
2023-03-27T04:51:07.303Z,93961.38
2023-03-27T04:53:36.508Z,93967.41
2023-03-27T04:56:04.681Z,93962.06
2023-03-27T04:58:31.661Z,93970.66
2023-03-27T05:00:58.681Z,93970.00
2023-03-27T05:03:26.384Z,93980.72
2023-03-27T05:05:53.972Z,93975.38
2023-03-27T05:08:20.877Z,93999.13
2023-03-27T05:10:47.727Z,93978.88
2023-03-27T05:13:14.659Z,94000.56
2023-03-27T05:15:42.037Z,94018.47
2023-03-27T05:18:09.458Z,94004.78
2023-03-27T05:20:37.094Z,94026.28
2023-03-27T05:23:04.263Z,94047.53
2023-03-27T05:25:32.921Z,94064.75
2023-03-27T05:28:00.894Z,94052.94
2023-03-27T05:30:29.224Z,94082.31
2023-03-27T05:32:59.569Z,94082.28
2023-03-27T05:35:28.779Z,94086.75
2023-03-27T05:37:57.450Z,94071.09
2023-03-27T05:40:27.030Z,94084.22
2023-03-27T05:42:56.011Z,94089.41
2023-03-27T05:45:24.317Z,94111.28
2023-03-27T05:47:58.242Z,94110.13
2023-03-27T05:50:35.549Z,94119.50
2023-03-27T05:53:10.376Z,94107.41
2023-03-27T05:55:38.922Z,94139.41
2023-03-27T05:58:10.432Z,94156.84
2023-03-27T06:00:38.841Z,94159.97
2023-03-27T06:03:07.191Z,94150.59
2023-03-27T06:05:34.745Z,94147.94
2023-03-27T06:08:02.819Z,94171.34
2023-03-27T06:10:31.119Z,94177.16
2023-03-27T06:13:04.101Z,94187.09
2023-03-27T06:15:33.192Z,94170.84
2023-03-27T06:18:00.128Z,94197.16
2023-03-27T06:20:27.856Z,94199.88
2023-03-27T06:23:03.113Z,94211.09
2023-03-27T06:25:34.795Z,94232.00
2023-03-27T06:28:04.823Z,94232.34
2023-03-27T06:30:31.811Z,94230.38
2023-03-27T06:33:00.617Z,94218.81
2023-03-27T06:35:32.022Z,94244.22
2023-03-27T06:38:00.226Z,94241.41
2023-03-27T06:40:29.317Z,94252.63
2023-03-27T06:43:10.496Z,94265.75
2023-03-27T06:45:47.138Z,94274.03
2023-03-27T06:48:21.210Z,94249.81
2023-03-27T06:50:51.753Z,94256.41
2023-03-27T06:55:50.437Z,94289.59
2023-03-27T06:58:19.416Z,94298.56
2023-03-27T07:00:49.089Z,94296.00
2023-03-27T07:03:16.809Z,94302.94
2023-03-27T07:05:46.002Z,94271.31
2023-03-27T07:10:50.620Z,94329.22
2023-03-27T07:13:23.637Z,94314.59
2023-03-27T07:15:50.522Z,94318.63
2023-03-27T07:18:17.677Z,94338.41
2023-03-27T07:20:45.408Z,94328.28
2023-03-27T07:23:12.253Z,94316.75
2023-03-27T07:25:39.597Z,94340.03
2023-03-27T07:28:14.157Z,94343.81
2023-03-27T07:30:41.684Z,94334.13
2023-03-27T07:33:12.896Z,94338.97
2023-03-27T07:35:47.611Z,94361.22
2023-03-27T07:38:16.273Z,94350.16
2023-03-27T07:40:46.813Z,94358.84
2023-03-27T07:43:14.411Z,94394.63
2023-03-27T07:45:41.793Z,94381.25
2023-03-27T07:48:16.412Z,94397.28
2023-03-27T07:50:43.761Z,94396.09
2023-03-27T07:53:33.844Z,94391.13
2023-03-27T07:56:00.596Z,94397.28
2023-03-27T07:58:27.808Z,94421.41
2023-03-27T08:00:55.035Z,94401.25
2023-03-27T08:03:22.303Z,94410.00
2023-03-27T08:05:58.727Z,94416.72
2023-03-27T08:08:27.368Z,94449.44
2023-03-27T08:10:57.228Z,94443.06
2023-03-27T08:13:24.474Z,94431.66
2023-03-27T08:15:51.524Z,94428.22
2023-03-27T08:18:18.664Z,94439.78
2023-03-27T08:20:45.870Z,94447.91
2023-03-27T08:23:12.784Z,94458.84
2023-03-27T08:25:40.138Z,94438.59
2023-03-27T08:28:07.440Z,94470.06
2023-03-27T08:30:35.501Z,94481.00
2023-03-27T08:33:02.619Z,94483.97
2023-03-27T08:35:29.572Z,94483.47
2023-03-27T08:37:56.484Z,94470.53
2023-03-27T08:40:28.486Z,94498.56
2023-03-27T08:43:02.616Z,94507.75
2023-03-27T08:45:46.325Z,94495.97
2023-03-27T08:48:22.235Z,94517.19
2023-03-27T08:51:26.417Z,94518.59
2023-03-27T08:54:17.487Z,94499.50
2023-03-27T08:56:45.467Z,94531.19
2023-03-27T08:59:17.235Z,94534.16
2023-03-27T09:01:50.302Z,94544.28
2023-03-27T09:04:25.077Z,94538.28
2023-03-27T09:07:19.756Z,94546.91
2023-03-27T09:10:15.545Z,94562.69
2023-03-27T09:12:46.099Z,94551.59
2023-03-27T09:15:17.665Z,94557.34
2023-03-27T09:17:53.642Z,94560.78
2023-03-27T09:20:35.595Z,94576.81
2023-03-27T09:23:22.344Z,94570.94
2023-03-27T09:26:41.564Z,94568.22
2023-03-27T09:29:26.958Z,94559.13
2023-03-27T09:31:56.632Z,94566.31
2023-03-27T09:34:34.401Z,94570.88
2023-03-27T09:37:01.727Z,94564.47
2023-03-27T09:39:32.916Z,94574.56
2023-03-27T09:42:11.205Z,94580.53
2023-03-27T09:44:42.652Z,94596.31
2023-03-27T09:47:18.253Z,94589.44
2023-03-27T09:49:50.829Z,94592.91
2023-03-27T09:52:39.869Z,94598.94
2023-03-27T09:55:27.094Z,94603.31
2023-03-27T09:58:00.823Z,94602.09
2023-03-27T10:00:34.322Z,94601.66
2023-03-27T10:03:06.016Z,94605.97
2023-03-27T10:05:33.347Z,94610.59
2023-03-27T10:08:03.819Z,94606.56
2023-03-27T10:10:32.842Z,94607.88
2023-03-27T10:13:01.296Z,94638.56
2023-03-27T10:15:35.050Z,94638.88
2023-03-27T10:18:09.041Z,94635.78
2023-03-27T10:20:36.079Z,94628.50
2023-03-27T10:23:08.870Z,94640.56
2023-03-27T10:25:42.350Z,94641.66
2023-03-27T10:28:15.649Z,94647.03
2023-03-27T10:30:42.455Z,94635.56
2023-03-27T10:33:09.508Z,94639.75
2023-03-27T10:35:43.893Z,94632.97
2023-03-27T10:38:15.181Z,94648.69
2023-03-27T10:40:50.900Z,94644.94
2023-03-27T10:43:32.930Z,94670.84
2023-03-27T10:46:05.209Z,94660.09
2023-03-27T10:49:17.471Z,94669.53
2023-03-27T10:51:52.854Z,94689.94
2023-03-27T10:54:38.016Z,94684.81
2023-03-27T10:57:14.190Z,94688.81
2023-03-27T10:59:50.880Z,94683.97
2023-03-27T11:02:40.032Z,94699.28
2023-03-27T11:05:21.042Z,94672.03
2023-03-27T11:07:57.082Z,94683.97
2023-03-27T11:10:31.142Z,94698.88
2023-03-27T11:13:04.751Z,94686.19
2023-03-27T11:15:42.503Z,94694.09
2023-03-27T11:18:19.051Z,94679.53
2023-03-27T11:20:56.914Z,94688.09
2023-03-27T11:23:42.888Z,94699.75
2023-03-27T11:26:15.851Z,94709.19
2023-03-27T11:28:53.194Z,94725.72
2023-03-27T11:31:38.677Z,94716.44
2023-03-27T11:34:29.381Z,94719.69
2023-03-27T11:37:14.827Z,94718.28
2023-03-27T11:40:30.374Z,94708.59
2023-03-27T11:42:57.622Z,94705.38
2023-03-27T11:45:28.086Z,94713.69
2023-03-27T11:48:16.514Z,94717.59
2023-03-27T11:50:53.355Z,94725.44
2023-03-27T11:53:45.462Z,94729.84
2023-03-27T11:56:29.305Z,94726.41
2023-03-27T11:59:27.734Z,94730.13
2023-03-27T12:02:02.366Z,94740.81
2023-03-27T12:04:58.841Z,94729.00
2023-03-27T12:08:25.483Z,94733.53
2023-03-27T12:10:54.967Z,94738.59
2023-03-27T12:14:01.158Z,94745.59
2023-03-27T12:17:02.311Z,94750.28
2023-03-27T12:19:54.166Z,94730.69
2023-03-27T12:22:35.989Z,94745.66
2023-03-27T12:25:23.938Z,94738.78
2023-03-27T12:28:01.578Z,94730.84
2023-03-27T12:30:59.050Z,94734.94
2023-03-27T12:34:05.008Z,94735.28
2023-03-27T12:36:37.972Z,94728.34
2023-03-27T12:39:26.274Z,94744.59
2023-03-27T12:41:53.762Z,94749.56
2023-03-27T12:44:30.396Z,94750.56
2023-03-27T12:47:25.053Z,94740.13
2023-03-27T12:50:00.906Z,94740.69
2023-03-27T12:52:28.767Z,94729.47
2023-03-27T12:55:36.301Z,94751.13
2023-03-27T12:58:05.514Z,94749.63
2023-03-27T13:00:32.846Z,94745.03
2023-03-27T13:03:56.256Z,94755.00
2023-03-27T13:07:03.204Z,94760.34
2023-03-27T13:09:38.947Z,94753.53
2023-03-27T13:13:02.843Z,94756.63
2023-03-27T13:16:06.811Z,94764.91
2023-03-27T13:19:08.422Z,94766.59
2023-03-27T13:22:11.259Z,94781.16
2023-03-27T13:25:06.026Z,94780.75
2023-03-27T13:28:20.290Z,94772.91
2023-03-27T13:30:51.636Z,94765.88
2023-03-27T13:33:29.717Z,94754.22
2023-03-27T13:36:00.807Z,94773.13
2023-03-27T13:39:08.550Z,94774.56
2023-03-27T13:41:48.043Z,94773.59
2023-03-27T13:45:01.089Z,94779.97
2023-03-27T13:47:50.368Z,94775.75
2023-03-27T13:50:37.268Z,94774.25
2023-03-27T13:53:30.570Z,94771.47
2023-03-27T13:56:32.574Z,94779.50
2023-03-27T13:59:30.192Z,94780.47
2023-03-27T14:02:07.112Z,94777.09
2023-03-27T14:04:55.455Z,94782.16
2023-03-27T14:08:26.796Z,94776.50
2023-03-27T14:11:23.857Z,94789.88
2023-03-27T14:14:31.243Z,94784.50
2023-03-27T14:17:26.919Z,94794.34
2023-03-27T14:20:06.729Z,94792.31
2023-03-27T14:23:02.205Z,94798.69
2023-03-27T14:25:36.697Z,94802.31
2023-03-27T14:28:10.491Z,94800.72
2023-03-27T14:30:55.957Z,94801.13
2023-03-27T14:33:22.903Z,94800.47
2023-03-27T14:35:57.282Z,94806.63
2023-03-27T14:38:31.109Z,94798.41
2023-03-27T14:41:01.112Z,94782.38
2023-03-27T14:43:31.920Z,94780.94
2023-03-27T14:46:03.402Z,94778.16
2023-03-27T14:48:37.563Z,94791.78
2023-03-27T14:51:10.974Z,94788.22
2023-03-27T14:53:44.793Z,94788.56
2023-03-27T14:56:37.419Z,94795.81
2023-03-27T14:59:11.594Z,94803.03
2023-03-27T15:01:39.118Z,94797.63
2023-03-27T15:04:08.005Z,94793.03
2023-03-27T15:06:36.821Z,94795.63
2023-03-27T15:09:05.809Z,94795.72
2023-03-27T15:11:39.104Z,94809.53
2023-03-27T15:14:15.662Z,94804.81
2023-03-27T15:17:15.259Z,94795.81
2023-03-27T15:19:53.952Z,94793.59
2023-03-27T15:22:36.380Z,94804.75
2023-03-27T15:25:09.282Z,94798.16
2023-03-27T15:27:41.317Z,94798.00
2023-03-27T15:30:18.193Z,94805.38
2023-03-27T15:32:50.927Z,94806.50
2023-03-27T15:35:25.642Z,94808.44
2023-03-27T15:37:52.949Z,94809.38
2023-03-27T15:40:35.726Z,94807.47
2023-03-27T15:43:14.417Z,94801.06
2023-03-27T15:46:02.807Z,94814.94
2023-03-27T15:48:35.521Z,94814.69
2023-03-27T15:51:26.553Z,94821.84
2023-03-27T15:53:56.026Z,94824.44
2023-03-27T15:56:44.977Z,94824.16
2023-03-27T15:59:15.553Z,94837.09
2023-03-27T16:02:03.789Z,94837.91
2023-03-27T16:04:56.304Z,94850.00
2023-03-27T16:07:53.903Z,94848.09
2023-03-27T16:10:31.318Z,94855.63
2023-03-27T16:13:06.658Z,94852.47
2023-03-27T16:15:43.845Z,94853.88
2023-03-27T16:18:31.749Z,94867.75
2023-03-27T16:21:14.774Z,94877.47
2023-03-27T16:23:42.577Z,94892.09
2023-03-27T16:26:26.764Z,94892.78
2023-03-27T16:28:58.444Z,94886.56
2023-03-27T16:31:25.611Z,94891.47
2023-03-27T16:33:52.882Z,94894.44
2023-03-27T16:36:29.083Z,94903.56
2023-03-27T16:38:56.193Z,94907.72
2023-03-27T16:41:23.429Z,94907.16
2023-03-27T16:43:50.564Z,94907.97
2023-03-27T16:46:22.131Z,94903.31
2023-03-27T16:48:51.324Z,94897.69
2023-03-27T16:51:25.725Z,94906.88
2023-03-27T16:53:53.134Z,94914.03
2023-03-27T16:56:21.438Z,94915.88
2023-03-27T16:58:48.989Z,94913.16
2023-03-27T17:01:16.345Z,94908.31
2023-03-27T17:03:43.297Z,94916.22
2023-03-27T17:06:12.893Z,94923.09
2023-03-27T17:08:39.833Z,94925.00
2023-03-27T17:11:12.917Z,94933.59
2023-03-27T17:13:43.385Z,94938.00
2023-03-27T17:16:11.282Z,94941.41
2023-03-27T17:18:38.220Z,94931.63
2023-03-27T17:21:05.574Z,94942.44
2023-03-27T17:23:32.650Z,94947.97
2023-03-27T17:26:01.766Z,94939.34
2023-03-27T17:28:30.019Z,94957.56
2023-03-27T17:31:04.839Z,94969.00
2023-03-27T17:33:32.446Z,94985.59
2023-03-27T17:35:59.426Z,94972.69
2023-03-27T17:38:26.665Z,94986.13
2023-03-27T17:40:53.521Z,94994.84
2023-03-27T17:43:20.438Z,94992.13
2023-03-27T17:45:48.141Z,95001.31
2023-03-27T17:48:14.997Z,94990.28
2023-03-27T17:50:41.852Z,95010.78
2023-03-27T17:53:08.948Z,95011.28
2023-03-27T17:55:38.648Z,95016.72
2023-03-27T17:58:09.933Z,95013.03
2023-03-27T18:00:41.643Z,95013.81
2023-03-27T18:03:09.116Z,95016.66
2023-03-27T18:05:40.956Z,95020.84
2023-03-27T18:10:35.542Z,95001.25
2023-03-27T18:13:02.821Z,95017.72
2023-03-27T18:15:31.046Z,95020.75
2023-03-27T18:17:58.225Z,94970.34
2023-03-27T18:20:25.397Z,95000.22
2023-03-27T18:22:52.430Z,94957.91
2023-03-27T18:25:19.644Z,94990.22
2023-03-27T18:27:46.624Z,94983.47
2023-03-27T18:30:16.269Z,94992.91
2023-03-27T18:32:46.018Z,94964.97
2023-03-27T18:35:21.028Z,95009.47
2023-03-27T18:37:48.241Z,94979.13
2023-03-27T18:40:18.620Z,94985.53
2023-03-27T18:42:59.934Z,94992.38
2023-03-27T18:45:27.100Z,95013.41
2023-03-27T18:47:54.350Z,95026.47
2023-03-27T18:50:21.568Z,94986.19
2023-03-27T18:52:48.501Z,95026.28
2023-03-27T18:55:20.496Z,95023.91
2023-03-27T18:57:48.003Z,95021.88
2023-03-27T19:00:18.632Z,95016.34
2023-03-27T19:02:46.844Z,94996.78
2023-03-27T19:05:16.444Z,94995.56
2023-03-27T19:07:45.098Z,95001.13
2023-03-27T19:10:14.243Z,94997.75
2023-03-27T19:12:41.283Z,95038.09
2023-03-27T19:15:19.263Z,95056.81
2023-03-27T19:17:47.360Z,94987.84
2023-03-27T19:20:14.380Z,95050.78
2023-03-27T19:22:41.539Z,95005.00
2023-03-27T19:25:12.809Z,95039.94
2023-03-27T19:27:40.007Z,95028.63
2023-03-27T19:30:16.268Z,95015.69
2023-03-27T19:32:56.030Z,95002.53
2023-03-27T19:35:23.335Z,95075.09
2023-03-27T19:37:50.542Z,95060.69
2023-03-27T19:40:18.924Z,95066.81
2023-03-27T19:42:46.184Z,95054.56
2023-03-27T19:45:13.327Z,95060.06
2023-03-27T19:47:42.155Z,95070.44
2023-03-27T19:50:09.850Z,95071.91
2023-03-27T19:52:36.793Z,95085.19
2023-03-27T19:55:04.720Z,95083.66
2023-03-27T19:57:31.654Z,95066.72
2023-03-27T19:59:58.742Z,95065.28
2023-03-27T20:02:27.505Z,95075.09
2023-03-27T20:04:54.579Z,95066.59
2023-03-27T20:07:21.537Z,95071.91
2023-03-27T20:09:48.475Z,95077.19
2023-03-27T20:12:16.136Z,95081.56
2023-03-27T20:14:46.530Z,95057.28
2023-03-27T20:17:27.881Z,95054.56
2023-03-27T20:19:55.984Z,95051.78
2023-03-27T20:22:23.180Z,95036.31
2023-03-27T20:24:50.463Z,95044.00
2023-03-27T20:27:20.101Z,95037.03
2023-03-27T20:30:06.934Z,95033.84
2023-03-27T20:32:48.051Z,95040.69
2023-03-27T20:35:23.598Z,95072.63
2023-03-27T20:38:26.756Z,95070.25
2023-03-27T20:40:54.667Z,95036.66
2023-03-27T20:43:24.437Z,95033.13
2023-03-27T20:45:53.296Z,95084.88
2023-03-27T20:48:28.497Z,95047.94
2023-03-27T20:50:55.719Z,95061.81
2023-03-27T20:53:33.783Z,95057.25
2023-03-27T20:56:21.683Z,95055.59
2023-03-27T20:58:52.395Z,95045.66
2023-03-27T21:01:19.983Z,95074.72
2023-03-27T21:03:58.788Z,95064.31
2023-03-27T21:06:26.134Z,95095.66
2023-03-27T21:09:11.080Z,95061.09
2023-03-27T21:11:38.063Z,95086.22
2023-03-27T21:14:05.010Z,95127.59
2023-03-27T21:16:38.497Z,95078.75
2023-03-27T21:19:08.711Z,95061.41
2023-03-27T21:21:40.959Z,95053.03
2023-03-27T21:24:08.356Z,95110.81
2023-03-27T21:27:48.219Z,95143.19
2023-03-27T21:31:16.569Z,95132.59
2023-03-27T21:33:43.657Z,95060.91
2023-03-27T21:36:18.289Z,95097.31
2023-03-27T21:38:45.589Z,95092.91
2023-03-27T21:41:20.406Z,95105.19
2023-03-27T21:44:00.490Z,95068.94
2023-03-27T21:47:19.609Z,95125.75
2023-03-27T21:49:59.759Z,95076.94
2023-03-27T21:53:13.078Z,95076.13
2023-03-27T21:56:02.597Z,95069.28
2023-03-27T21:58:48.133Z,95085.69
2023-03-27T22:02:12.864Z,95151.25
2023-03-27T22:08:23.669Z,95097.59
2023-03-27T22:11:09.352Z,95114.59
2023-03-27T22:13:46.768Z,95121.38
2023-03-27T22:16:17.130Z,95148.97
2023-03-27T22:18:52.730Z,95090.41
2023-03-27T22:21:43.632Z,95114.19
2023-03-27T22:24:10.899Z,95120.75
2023-03-27T22:26:40.320Z,95152.09
2023-03-27T22:29:09.608Z,95159.47
2023-03-27T22:31:37.026Z,95151.47
2023-03-27T22:34:05.521Z,95161.81
2023-03-27T22:36:33.691Z,95160.72
2023-03-27T22:39:01.595Z,95177.22
2023-03-27T22:41:29.845Z,95173.88
2023-03-27T22:43:56.928Z,95179.09
2023-03-27T22:46:24.632Z,95178.88
2023-03-27T22:48:56.663Z,95197.47
2023-03-27T22:51:24.930Z,95191.09
2023-03-27T22:53:51.902Z,95186.44
2023-03-27T22:58:59.902Z,95201.00
2023-03-27T23:01:26.978Z,95203.38
2023-03-27T23:03:54.137Z,95206.19
2023-03-27T23:06:23.782Z,95212.09
2023-03-27T23:08:51.743Z,95207.22
2023-03-27T23:11:19.852Z,95205.03
2023-03-27T23:13:47.704Z,95214.16
2023-03-27T23:16:15.045Z,95217.59
2023-03-27T23:18:42.186Z,95218.63
2023-03-27T23:21:11.885Z,95213.94
2023-03-27T23:23:40.740Z,95232.56
2023-03-27T23:26:09.169Z,95231.69
2023-03-27T23:28:39.879Z,95236.56
2023-03-27T23:31:11.791Z,95240.94
2023-03-27T23:33:42.042Z,95243.41
2023-03-27T23:36:16.976Z,95248.59
2023-03-27T23:38:43.946Z,95245.25
2023-03-27T23:41:13.416Z,95244.34
2023-03-27T23:43:40.495Z,95238.22
2023-03-27T23:46:11.181Z,95258.78
2023-03-27T23:48:40.991Z,95257.94
2023-03-27T23:51:09.022Z,95265.19
2023-03-27T23:53:36.562Z,95260.81
2023-03-27T23:56:03.902Z,95258.13
2023-03-27T23:58:34.105Z,95271.19
